createdAt,value
2023-12-22T00:00:56.996Z,98727.19
2023-12-22T00:03:24.014Z,98726.28
2023-12-22T00:05:50.350Z,98711.34
2023-12-22T00:08:16.716Z,98719.34
2023-12-22T00:10:43.160Z,98727.28
2023-12-22T00:13:09.583Z,98748.25
2023-12-22T00:15:36.005Z,98741.25
2023-12-22T00:18:02.468Z,98752.63
2023-12-22T00:20:28.868Z,98753.41
2023-12-22T00:22:55.295Z,98743.97
2023-12-22T00:25:21.764Z,98744.88
2023-12-22T00:27:48.438Z,98764.22
2023-12-22T00:30:15.151Z,98757.97
2023-12-22T00:32:41.521Z,98749.34
2023-12-22T00:35:08.308Z,98751.13
2023-12-22T00:37:34.872Z,98744.19
2023-12-22T00:40:01.872Z,98745.03
2023-12-22T00:42:28.281Z,98749.34
2023-12-22T00:44:54.615Z,98744.03
2023-12-22T00:47:21.120Z,98730.00
2023-12-22T00:49:47.591Z,98729.09
2023-12-22T00:52:14.012Z,98725.59
2023-12-22T00:54:40.367Z,98724.69
2023-12-22T00:57:06.828Z,98730.75
2023-12-22T00:59:33.181Z,98735.97
2023-12-22T01:01:59.563Z,98747.31
2023-12-22T01:04:26.012Z,98756.13
2023-12-22T01:06:52.733Z,98746.44
2023-12-22T01:09:20.720Z,98756.00
2023-12-22T01:11:47.594Z,98740.91
2023-12-22T01:14:16.765Z,98746.19
2023-12-22T01:16:43.197Z,98754.00
2023-12-22T01:19:09.711Z,98750.38
2023-12-22T01:21:36.171Z,98754.66
2023-12-22T01:24:02.554Z,98749.47
2023-12-22T01:26:29.059Z,98755.66
2023-12-22T01:28:55.543Z,98778.34
2023-12-22T01:31:22.081Z,98785.28
2023-12-22T01:33:48.479Z,98776.28
2023-12-22T01:36:14.829Z,98770.03
2023-12-22T01:38:41.475Z,98766.34
2023-12-22T01:41:07.841Z,98770.78
2023-12-22T01:43:34.223Z,98772.63
2023-12-22T01:46:02.372Z,98785.63
2023-12-22T01:48:29.797Z,98790.03
2023-12-22T01:50:57.437Z,98809.16
2023-12-22T01:53:25.168Z,98823.22
2023-12-22T01:55:52.928Z,98825.84
2023-12-22T01:58:20.921Z,98827.53
2023-12-22T02:00:47.621Z,98818.03
2023-12-22T02:03:14.915Z,98827.72
2023-12-22T02:05:42.599Z,98826.88
2023-12-22T02:08:09.296Z,98812.91
2023-12-22T02:10:35.903Z,98831.44
2023-12-22T02:13:02.459Z,98825.28
2023-12-22T02:15:29.068Z,98820.16
2023-12-22T02:18:17.938Z,98826.22
2023-12-22T02:20:45.271Z,98804.34
2023-12-22T02:23:11.869Z,98811.25
2023-12-22T02:25:38.270Z,98818.28
2023-12-22T02:28:14.757Z,98813.84
2023-12-22T02:31:02.139Z,98814.63
2023-12-22T02:33:30.670Z,98813.72
2023-12-22T02:36:01.237Z,98801.38
2023-12-22T02:38:27.979Z,98797.03
2023-12-22T02:40:54.385Z,98812.88
2023-12-22T02:43:20.877Z,98819.69
2023-12-22T02:45:51.868Z,98821.50
2023-12-22T02:48:18.678Z,98811.91
2023-12-22T02:50:45.107Z,98814.53
2023-12-22T02:53:11.442Z,98810.19
2023-12-22T02:55:37.768Z,98803.22
2023-12-22T02:58:04.257Z,98805.81
2023-12-22T03:00:30.629Z,98803.16
2023-12-22T03:02:56.947Z,98796.28
2023-12-22T03:05:23.454Z,98804.19
2023-12-22T03:07:50.171Z,98800.69
2023-12-22T03:10:16.716Z,98819.69
2023-12-22T03:12:43.365Z,98818.84
2023-12-22T03:15:10.298Z,98816.88
2023-12-22T03:17:36.583Z,98820.41
2023-12-22T03:20:03.046Z,98806.34
2023-12-22T03:22:29.578Z,98808.97
2023-12-22T03:24:55.977Z,98804.63
2023-12-22T03:27:22.292Z,98792.47
2023-12-22T03:29:48.654Z,98797.75
2023-12-22T03:32:15.028Z,98795.13
2023-12-22T03:34:42.409Z,98791.81
2023-12-22T03:37:08.823Z,98795.28
2023-12-22T03:39:35.142Z,98800.38
2023-12-22T03:42:01.503Z,98804.78
2023-12-22T03:44:28.652Z,98807.47
2023-12-22T03:46:55.070Z,98792.66
2023-12-22T03:49:21.627Z,98809.44
2023-12-22T03:51:48.027Z,98809.66
2023-12-22T03:54:16.892Z,98797.44
2023-12-22T03:56:43.443Z,98818.38
2023-12-22T03:59:09.862Z,98827.84
2023-12-22T04:01:36.195Z,98818.94
2023-12-22T04:04:02.509Z,98809.31
2023-12-22T04:06:30.026Z,98807.28
2023-12-22T04:08:56.429Z,98787.84
2023-12-22T04:11:22.731Z,98799.19
2023-12-22T04:13:49.046Z,98793.16
2023-12-22T04:16:15.393Z,98814.97
2023-12-22T04:18:41.906Z,98812.31
2023-12-22T04:21:08.277Z,98811.38
2023-12-22T04:23:34.686Z,98809.41
2023-12-22T04:26:02.670Z,98810.91
2023-12-22T04:28:29.036Z,98813.41
2023-12-22T04:30:55.352Z,98822.06
2023-12-22T04:33:21.829Z,98818.56
2023-12-22T04:35:48.254Z,98817.59
2023-12-22T04:38:14.569Z,98820.28
2023-12-22T04:40:40.947Z,98824.66
2023-12-22T04:43:07.327Z,98831.75
2023-12-22T04:45:33.652Z,98836.97
2023-12-22T04:48:00.202Z,98829.06
2023-12-22T04:50:26.622Z,98822.91
2023-12-22T04:52:53.051Z,98823.78
2023-12-22T04:55:19.548Z,98814.13
2023-12-22T04:57:45.985Z,98821.09
2023-12-22T05:00:13.448Z,98817.53
2023-12-22T05:02:39.760Z,98832.41
2023-12-22T05:05:06.283Z,98814.00
2023-12-22T05:07:32.682Z,98819.28
2023-12-22T05:09:59.009Z,98808.75
2023-12-22T05:12:25.413Z,98830.72
2023-12-22T05:14:51.843Z,98860.59
2023-12-22T05:17:18.207Z,98850.94
2023-12-22T05:19:44.754Z,98853.59
2023-12-22T05:22:11.128Z,98864.03
2023-12-22T05:24:39.194Z,98888.63
2023-12-22T05:27:05.791Z,98880.78
2023-12-22T05:29:32.181Z,98880.66
2023-12-22T05:31:58.609Z,98864.13
2023-12-22T05:34:25.088Z,98879.97
2023-12-22T05:36:51.447Z,98879.03
2023-12-22T05:39:17.753Z,98893.91
2023-12-22T05:41:44.057Z,98872.06
2023-12-22T05:44:10.456Z,98868.31
2023-12-22T05:46:39.226Z,98868.03
2023-12-22T05:49:06.138Z,98865.28
2023-12-22T05:51:40.626Z,98862.59
2023-12-22T05:54:09.495Z,98855.50
2023-12-22T05:56:35.888Z,98876.50
2023-12-22T05:59:02.404Z,98881.84
2023-12-22T06:01:28.861Z,98881.03
2023-12-22T06:03:55.899Z,98883.66
2023-12-22T06:06:22.263Z,98888.97
2023-12-22T06:08:48.597Z,98878.44
2023-12-22T06:11:15.152Z,98886.34
2023-12-22T06:13:41.589Z,98905.78
2023-12-22T06:16:12.361Z,98928.63
2023-12-22T06:18:38.997Z,98927.69
2023-12-22T06:21:05.320Z,98924.25
2023-12-22T06:23:34.294Z,98905.91
2023-12-22T06:26:03.286Z,98930.53
2023-12-22T06:28:29.861Z,98923.59
2023-12-22T06:30:56.184Z,98929.81
2023-12-22T06:33:22.552Z,98928.84
2023-12-22T06:35:49.400Z,98914.09
2023-12-22T06:38:15.755Z,98931.44
2023-12-22T06:40:42.100Z,98937.56
2023-12-22T06:43:08.430Z,98941.94
2023-12-22T06:45:34.726Z,98942.03
2023-12-22T06:48:01.860Z,98943.88
2023-12-22T06:50:28.572Z,98928.19
2023-12-22T06:52:55.006Z,98937.78
2023-12-22T06:55:21.455Z,98930.00
2023-12-22T06:57:48.130Z,98926.53
2023-12-22T07:00:15.024Z,98930.94
2023-12-22T07:02:41.429Z,98946.81
2023-12-22T07:05:11.060Z,98940.75
2023-12-22T07:07:37.651Z,98935.63
2023-12-22T07:10:04.708Z,98946.16
2023-12-22T07:12:32.690Z,98949.63
2023-12-22T07:15:00.274Z,98940.84
2023-12-22T07:17:26.823Z,98958.28
2023-12-22T07:19:53.334Z,98963.56
2023-12-22T07:22:19.886Z,98969.50
2023-12-22T07:24:47.299Z,98971.94
2023-12-22T07:27:13.883Z,98961.31
2023-12-22T07:29:40.437Z,98957.63
2023-12-22T07:32:07.152Z,98956.63
2023-12-22T07:34:36.077Z,98960.13
2023-12-22T07:37:07.520Z,98962.69
2023-12-22T07:39:36.445Z,98972.16
2023-12-22T07:42:04.052Z,98975.47
2023-12-22T07:44:30.387Z,98967.53
2023-12-22T07:46:59.769Z,98990.91
2023-12-22T07:49:26.949Z,98971.56
2023-12-22T07:51:54.134Z,98982.00
2023-12-22T07:54:20.679Z,98963.34
2023-12-22T07:56:47.008Z,98982.53
2023-12-22T07:59:22.954Z,98980.66
2023-12-22T08:01:56.622Z,98982.94
2023-12-22T08:04:23.097Z,98985.38
2023-12-22T08:06:49.557Z,98985.03
2023-12-22T08:09:15.944Z,98985.66
2023-12-22T08:11:42.323Z,98985.53
2023-12-22T08:14:08.694Z,98971.44
2023-12-22T08:16:35.076Z,98983.34
2023-12-22T08:19:01.774Z,98980.72
2023-12-22T08:21:34.605Z,98957.63
2023-12-22T08:24:10.797Z,98962.78
2023-12-22T08:26:38.264Z,98965.25
2023-12-22T08:29:04.602Z,98981.88
2023-12-22T08:31:31.012Z,98992.44
2023-12-22T08:33:57.389Z,98991.56
2023-12-22T08:36:23.724Z,99012.66
2023-12-22T08:38:50.605Z,98999.47
2023-12-22T08:41:17.346Z,99001.50
2023-12-22T08:43:43.924Z,98989.03
2023-12-22T08:46:10.954Z,99002.44
2023-12-22T08:48:39.524Z,99005.25
2023-12-22T08:51:06.245Z,99021.31
2023-12-22T08:53:37.458Z,99006.47
2023-12-22T08:56:04.360Z,99006.59
2023-12-22T08:58:30.894Z,99005.94
2023-12-22T09:00:57.273Z,99020.16
2023-12-22T09:03:24.555Z,99013.09
2023-12-22T09:05:51.002Z,99010.53
2023-12-22T09:08:17.399Z,99014.84
2023-12-22T09:10:44.084Z,99000.00
2023-12-22T09:13:10.437Z,99014.19
2023-12-22T09:15:37.258Z,99027.47
2023-12-22T09:18:03.982Z,99019.75
2023-12-22T09:20:31.176Z,98998.88
2023-12-22T09:22:57.526Z,99008.72
2023-12-22T09:25:25.170Z,99044.91
2023-12-22T09:27:51.947Z,99033.72
2023-12-22T09:30:18.680Z,99024.22
2023-12-22T09:32:45.230Z,99026.75
2023-12-22T09:35:11.665Z,98998.47
2023-12-22T09:37:39.065Z,99018.50
2023-12-22T09:40:08.437Z,99017.44
2023-12-22T09:42:35.021Z,99018.19
2023-12-22T09:45:03.994Z,99011.84
2023-12-22T09:47:32.061Z,99008.31
2023-12-22T09:49:59.256Z,99016.88
2023-12-22T09:52:27.321Z,99001.06
2023-12-22T09:54:57.922Z,98998.41
2023-12-22T09:57:28.562Z,98999.09
2023-12-22T09:59:56.889Z,99001.69
2023-12-22T10:02:26.889Z,98993.69
2023-12-22T10:04:53.668Z,98982.25
2023-12-22T10:07:21.552Z,98975.19
2023-12-22T10:09:48.948Z,98978.78
2023-12-22T10:12:15.875Z,98981.31
2023-12-22T10:14:42.341Z,98985.66
2023-12-22T10:17:08.832Z,98980.31
2023-12-22T10:19:35.343Z,98963.59
2023-12-22T10:22:01.714Z,98970.47
2023-12-22T10:24:53.055Z,98949.22
2023-12-22T10:27:23.525Z,98949.22
2023-12-22T10:29:51.070Z,98947.44
2023-12-22T10:32:17.986Z,98952.50
2023-12-22T10:34:44.504Z,98951.53
2023-12-22T10:37:11.231Z,98933.94
2023-12-22T10:39:38.815Z,98935.56
2023-12-22T10:42:05.750Z,98942.53
2023-12-22T10:44:32.070Z,98922.28
2023-12-22T10:46:59.345Z,98911.69
2023-12-22T10:49:26.409Z,98906.13
2023-12-22T10:51:53.021Z,98902.41
2023-12-22T10:54:20.357Z,98895.19
2023-12-22T10:56:46.743Z,98893.31
2023-12-22T10:59:13.153Z,98896.63
2023-12-22T11:01:39.994Z,98884.16
2023-12-22T11:04:14.897Z,98879.38
2023-12-22T11:06:43.881Z,98878.25
2023-12-22T11:09:11.279Z,98876.19
2023-12-22T11:11:39.654Z,98862.91
2023-12-22T11:14:07.770Z,98870.53
2023-12-22T11:16:35.986Z,98855.41
2023-12-22T11:19:05.771Z,98853.25
2023-12-22T11:21:32.202Z,98863.72
2023-12-22T11:23:58.652Z,98860.09
2023-12-22T11:26:26.134Z,98850.00
2023-12-22T11:28:53.402Z,98827.97
2023-12-22T11:31:21.430Z,98823.47
2023-12-22T11:33:58.740Z,98826.69
2023-12-22T11:36:32.563Z,98816.97
2023-12-22T11:38:59.128Z,98808.97
2023-12-22T11:41:28.813Z,98803.63
2023-12-22T11:43:57.533Z,98816.47
2023-12-22T11:46:24.849Z,98811.19
2023-12-22T11:48:53.073Z,98806.69
2023-12-22T11:51:19.976Z,98798.75
2023-12-22T11:53:46.405Z,98819.59
2023-12-22T11:56:14.346Z,98813.19
2023-12-22T11:58:43.544Z,98815.63
2023-12-22T12:01:11.696Z,98812.13
2023-12-22T12:03:42.555Z,98806.84
2023-12-22T12:06:15.341Z,98810.47
2023-12-22T12:08:42.921Z,98796.53
2023-12-22T12:11:09.420Z,98788.78
2023-12-22T12:13:43.719Z,98796.78
2023-12-22T12:16:12.208Z,98783.69
2023-12-22T12:18:39.797Z,98772.19
2023-12-22T12:21:11.012Z,98757.22
2023-12-22T12:23:37.730Z,98764.25
2023-12-22T12:26:04.649Z,98759.91
2023-12-22T12:28:32.401Z,98767.00
2023-12-22T12:31:00.962Z,98770.69
2023-12-22T12:33:28.933Z,98772.53
2023-12-22T12:35:59.364Z,98765.44
2023-12-22T12:38:50.473Z,98779.56
2023-12-22T12:41:17.163Z,98769.19
2023-12-22T12:43:44.530Z,98781.59
2023-12-22T12:46:11.858Z,98779.06
2023-12-22T12:48:38.781Z,98773.81
2023-12-22T12:51:06.063Z,98767.69
2023-12-22T12:53:36.355Z,98773.81
2023-12-22T12:56:02.916Z,98762.41
2023-12-22T12:58:33.499Z,98754.47
2023-12-22T13:01:20.529Z,98751.09
2023-12-22T13:03:53.772Z,98743.34
2023-12-22T13:06:20.184Z,98745.00
2023-12-22T13:08:53.272Z,98738.66
2023-12-22T13:11:28.090Z,98742.97
2023-12-22T13:13:54.748Z,98757.97
2023-12-22T13:16:21.898Z,98746.25
2023-12-22T13:18:49.126Z,98740.91
2023-12-22T13:21:15.981Z,98749.59
2023-12-22T13:23:42.602Z,98745.69
2023-12-22T13:26:19.963Z,98742.66
2023-12-22T13:28:46.461Z,98737.19
2023-12-22T13:31:19.089Z,98735.94
2023-12-22T13:33:46.164Z,98744.19
2023-12-22T13:36:13.285Z,98743.06
2023-12-22T13:38:40.083Z,98750.44
2023-12-22T13:41:08.694Z,98751.91
2023-12-22T13:43:35.099Z,98756.75
2023-12-22T13:46:01.604Z,98754.56
2023-12-22T13:48:28.022Z,98743.78
2023-12-22T13:51:02.236Z,98752.44
2023-12-22T13:53:28.708Z,98757.59
2023-12-22T13:55:59.075Z,98768.09
2023-12-22T13:58:25.711Z,98768.91
2023-12-22T14:00:52.948Z,98772.41
2023-12-22T14:03:26.099Z,98775.94
2023-12-22T14:05:54.355Z,98773.22
2023-12-22T14:08:20.846Z,98769.75
2023-12-22T14:10:50.363Z,98766.25
2023-12-22T14:13:16.814Z,98772.31
2023-12-22T14:15:45.589Z,98774.06
2023-12-22T14:18:12.781Z,98778.44
2023-12-22T14:20:39.476Z,98778.34
2023-12-22T14:23:06.096Z,98776.59
2023-12-22T14:25:33.166Z,98786.19
2023-12-22T14:28:00.100Z,98771.03
2023-12-22T14:30:26.409Z,98770.06
2023-12-22T14:32:53.077Z,98759.69
2023-12-22T14:35:19.561Z,98768.22
2023-12-22T14:37:47.511Z,98761.28
2023-12-22T14:40:14.097Z,98768.16
2023-12-22T14:42:40.425Z,98764.50
2023-12-22T14:45:07.074Z,98769.72
2023-12-22T14:47:33.495Z,98775.81
2023-12-22T14:50:04.746Z,98772.09
2023-12-22T14:52:34.343Z,98777.22
2023-12-22T14:55:01.352Z,98778.03
2023-12-22T14:57:29.933Z,98781.41
2023-12-22T14:59:56.532Z,98784.78
2023-12-22T15:02:23.527Z,98796.13
2023-12-22T15:04:49.943Z,98789.91
2023-12-22T15:07:17.787Z,98789.91
2023-12-22T15:09:44.596Z,98792.63
2023-12-22T15:12:11.433Z,98803.16
2023-12-22T15:14:37.679Z,98804.84
2023-12-22T15:17:04.152Z,98811.03
2023-12-22T15:19:30.661Z,98817.31
2023-12-22T15:21:57.137Z,98830.44
2023-12-22T15:24:24.554Z,98825.13
2023-12-22T15:26:51.906Z,98832.94
2023-12-22T15:29:18.225Z,98836.31
2023-12-22T15:31:48.810Z,98824.78
2023-12-22T15:34:15.345Z,98821.25
2023-12-22T15:36:41.766Z,98823.78
2023-12-22T15:39:08.114Z,98840.75
2023-12-22T15:41:34.512Z,98835.44
2023-12-22T15:44:01.217Z,98834.50
2023-12-22T15:46:27.628Z,98839.81
2023-12-22T15:48:54.211Z,98835.72
2023-12-22T15:51:21.400Z,98837.31
2023-12-22T15:53:48.120Z,98840.03
2023-12-22T15:56:14.879Z,98843.63
2023-12-22T15:58:41.597Z,98838.38
2023-12-22T16:01:08.291Z,98840.19
2023-12-22T16:03:34.852Z,98856.13
2023-12-22T16:06:05.118Z,98864.81
2023-12-22T16:08:34.302Z,98864.88
2023-12-22T16:11:00.686Z,98866.50
2023-12-22T16:13:30.399Z,98859.41
2023-12-22T16:16:01.148Z,98863.88
2023-12-22T16:18:27.866Z,98867.31
2023-12-22T16:20:54.347Z,98860.16
2023-12-22T16:23:23.485Z,98864.59
2023-12-22T16:25:53.567Z,98877.84
2023-12-22T16:28:20.419Z,98874.25
2023-12-22T16:30:47.552Z,98871.59
2023-12-22T16:33:15.366Z,98873.47
2023-12-22T16:35:42.778Z,98862.94
2023-12-22T16:38:09.358Z,98869.16
2023-12-22T16:40:35.809Z,98858.72
2023-12-22T16:43:02.184Z,98855.13
2023-12-22T16:45:28.505Z,98869.91
2023-12-22T16:47:54.872Z,98872.47
2023-12-22T16:50:21.252Z,98870.81
2023-12-22T16:52:48.061Z,98869.91
2023-12-22T16:55:18.723Z,98862.00
2023-12-22T16:57:45.584Z,98857.72
2023-12-22T17:00:13.973Z,98858.63
2023-12-22T17:02:40.775Z,98856.13
2023-12-22T17:05:07.847Z,98878.84
2023-12-22T17:07:37.745Z,98881.56
2023-12-22T17:10:06.673Z,98895.59
2023-12-22T17:12:33.098Z,98896.66
2023-12-22T17:15:00.701Z,98895.03
2023-12-22T17:17:27.957Z,98884.53
2023-12-22T17:19:54.934Z,98904.88
2023-12-22T17:22:21.330Z,98907.53
2023-12-22T17:24:47.713Z,98917.63
2023-12-22T17:27:14.048Z,98923.28
2023-12-22T17:29:40.381Z,98926.25
2023-12-22T17:32:11.412Z,98934.50
2023-12-22T17:34:37.911Z,98934.72
2023-12-22T17:37:05.407Z,98939.16
2023-12-22T17:39:32.094Z,98935.66
2023-12-22T17:41:58.470Z,98934.84
2023-12-22T17:44:24.781Z,98936.53
2023-12-22T17:46:51.175Z,98947.91
2023-12-22T17:49:17.579Z,98935.38
2023-12-22T17:51:44.294Z,98954.84
2023-12-22T17:54:10.837Z,98949.69
2023-12-22T17:56:37.430Z,98947.28
2023-12-22T17:59:03.929Z,98942.88
2023-12-22T18:01:30.717Z,98937.59
2023-12-22T18:03:57.233Z,98938.44
2023-12-22T18:06:23.680Z,98930.44
2023-12-22T18:08:50.184Z,98950.66
2023-12-22T18:11:16.864Z,98951.53
2023-12-22T18:13:43.295Z,98955.03
2023-12-22T18:16:09.706Z,98957.72
2023-12-22T18:18:36.064Z,98955.03
2023-12-22T18:21:02.738Z,98966.53
2023-12-22T18:23:29.133Z,98968.28
2023-12-22T18:25:55.545Z,98971.63
2023-12-22T18:28:22.205Z,98981.31
2023-12-22T18:30:48.629Z,98981.16
2023-12-22T18:33:15.474Z,99005.94
2023-12-22T18:35:41.901Z,98999.06
2023-12-22T18:38:08.309Z,99001.84
2023-12-22T18:40:34.705Z,99000.91
2023-12-22T18:43:03.086Z,99011.56
2023-12-22T18:45:29.594Z,99009.78
2023-12-22T18:47:56.201Z,99000.06
2023-12-22T18:50:23.095Z,99001.03
2023-12-22T18:52:50.354Z,98998.44
2023-12-22T18:55:16.937Z,98987.09
2023-12-22T18:57:43.330Z,98993.97
2023-12-22T19:00:10.999Z,98989.53
2023-12-22T19:02:51.800Z,98973.59
2023-12-22T19:05:23.309Z,98995.47
2023-12-22T19:07:50.003Z,98998.84
2023-12-22T19:10:17.147Z,98996.47
2023-12-22T19:12:45.744Z,98999.22
2023-12-22T19:15:12.170Z,99007.22
2023-12-22T19:17:38.974Z,99024.97
2023-12-22T19:20:07.100Z,99016.22
2023-12-22T19:22:34.341Z,99042.69
2023-12-22T19:25:01.034Z,99027.91
2023-12-22T19:27:27.408Z,99034.09
2023-12-22T19:29:53.836Z,99039.28
2023-12-22T19:32:21.096Z,99018.91
2023-12-22T19:34:50.512Z,99026.84
2023-12-22T19:37:19.071Z,99027.84
2023-12-22T19:39:46.278Z,99027.00
2023-12-22T19:42:13.354Z,99028.78
2023-12-22T19:44:40.216Z,99028.78
2023-12-22T19:47:06.541Z,99053.41
2023-12-22T19:49:34.499Z,99047.13
2023-12-22T19:52:00.852Z,99043.50
2023-12-22T19:54:27.181Z,99043.38
2023-12-22T19:56:53.545Z,99040.47
2023-12-22T19:59:20.069Z,99043.03
2023-12-22T20:01:46.472Z,99039.31
2023-12-22T20:04:12.911Z,99057.72
2023-12-22T20:06:41.900Z,99039.16
2023-12-22T20:09:09.179Z,99064.59
2023-12-22T20:11:35.513Z,99054.94
2023-12-22T20:14:02.640Z,99074.34
2023-12-22T20:16:29.733Z,99056.00
2023-12-22T20:18:57.650Z,99068.19
2023-12-22T20:21:24.308Z,99072.63
2023-12-22T20:23:52.893Z,99064.75
2023-12-22T20:26:19.627Z,99076.13
2023-12-22T20:28:46.180Z,99085.78
2023-12-22T20:31:12.682Z,99084.81
2023-12-22T20:33:39.078Z,99082.09
2023-12-22T20:36:05.853Z,99087.34
2023-12-22T20:38:32.252Z,99100.78
2023-12-22T20:40:58.679Z,99102.56
2023-12-22T20:43:25.554Z,99125.50
2023-12-22T20:45:53.443Z,99122.75
2023-12-22T20:48:19.960Z,99121.81
2023-12-22T20:50:46.806Z,99143.88
2023-12-22T20:53:13.271Z,99124.59
2023-12-22T20:55:40.504Z,99120.97
2023-12-22T20:58:07.823Z,99122.69
2023-12-22T21:00:34.989Z,99127.91
2023-12-22T21:03:01.416Z,99136.81
2023-12-22T21:05:28.739Z,99136.84
2023-12-22T21:07:56.178Z,99141.31
2023-12-22T21:10:22.687Z,99132.41
2023-12-22T21:12:49.126Z,99143.25
2023-12-22T21:15:15.871Z,99160.03
2023-12-22T21:17:50.883Z,99163.47
2023-12-22T21:20:17.911Z,99154.78
2023-12-22T21:22:44.545Z,99168.22
2023-12-22T21:25:11.165Z,99171.81
2023-12-22T21:27:37.717Z,99156.13
2023-12-22T21:30:07.299Z,99164.94
2023-12-22T21:32:33.967Z,99178.16
2023-12-22T21:35:00.635Z,99177.41
2023-12-22T21:37:27.153Z,99154.53
2023-12-22T21:39:53.866Z,99173.16
2023-12-22T21:42:20.267Z,99169.56
2023-12-22T21:44:46.626Z,99173.22
2023-12-22T21:47:14.395Z,99169.91
2023-12-22T21:49:41.148Z,99189.91
2023-12-22T21:52:07.622Z,99193.34
2023-12-22T21:54:34.116Z,99182.56
2023-12-22T21:57:00.547Z,99193.09
2023-12-22T21:59:27.799Z,99181.63
2023-12-22T22:01:54.328Z,99197.44
2023-12-22T22:04:20.940Z,99183.41
2023-12-22T22:06:47.263Z,99190.50
2023-12-22T22:09:13.715Z,99186.84
2023-12-22T22:11:40.255Z,99195.59
2023-12-22T22:14:18.074Z,99182.56
2023-12-22T22:16:49.696Z,99192.28
2023-12-22T22:19:16.132Z,99188.84
2023-12-22T22:21:42.523Z,99187.19
2023-12-22T22:24:08.910Z,99195.97
2023-12-22T22:26:39.645Z,99212.78
2023-12-22T22:29:06.110Z,99208.38
2023-12-22T22:31:32.547Z,99219.03
2023-12-22T22:33:59.070Z,99219.88
2023-12-22T22:36:25.496Z,99209.38
2023-12-22T22:38:51.879Z,99220.06
2023-12-22T22:41:18.361Z,99216.56
2023-12-22T22:43:44.757Z,99223.00
2023-12-22T22:46:13.008Z,99217.78
2023-12-22T22:48:40.907Z,99224.88
2023-12-22T22:51:07.297Z,99234.66
2023-12-22T22:53:33.612Z,99249.63
2023-12-22T22:56:01.993Z,99235.53
2023-12-22T22:58:28.396Z,99229.44
2023-12-22T23:00:54.791Z,99248.72
2023-12-22T23:03:21.209Z,99239.06
2023-12-22T23:05:47.683Z,99239.00
2023-12-22T23:08:14.361Z,99252.09
2023-12-22T23:10:40.842Z,99261.75
2023-12-22T23:13:07.222Z,99246.81
2023-12-22T23:15:33.640Z,99259.91
2023-12-22T23:18:00.032Z,99252.75
2023-12-22T23:20:26.571Z,99243.09
2023-12-22T23:22:53.063Z,99260.72
2023-12-22T23:25:19.777Z,99252.81
2023-12-22T23:27:47.442Z,99276.59
2023-12-22T23:30:14.059Z,99262.31
2023-12-22T23:32:40.558Z,99259.72
2023-12-22T23:35:07.531Z,99261.38
2023-12-22T23:37:33.962Z,99282.56
2023-12-22T23:40:00.299Z,99265.88
2023-12-22T23:42:26.665Z,99276.47
2023-12-22T23:44:52.984Z,99279.13
2023-12-22T23:47:19.381Z,99280.94
2023-12-22T23:49:45.760Z,99282.75
2023-12-22T23:52:12.119Z,99287.22
2023-12-22T23:54:38.711Z,99289.03
2023-12-22T23:57:05.442Z,99297.88
2023-12-22T23:59:31.802Z,99301.44
